createdAt,value
2023-02-19T00:00:00.630Z,36.83
2023-02-19T00:02:28.508Z,33.72
2023-02-19T00:04:56.026Z,37.25
2023-02-19T00:07:23.789Z,30.65
2023-02-19T00:09:51.190Z,35.72
2023-02-19T00:12:18.982Z,35.63
2023-02-19T00:14:46.476Z,29.35
2023-02-19T00:17:14.269Z,33.78
2023-02-19T00:19:41.765Z,29.85
2023-02-19T00:22:09.645Z,34.65
2023-02-19T00:24:37.200Z,35.53
2023-02-19T00:27:05.018Z,30.42
2023-02-19T00:29:32.561Z,31.15
2023-02-19T00:32:00.449Z,35.97
2023-02-19T00:34:27.957Z,30.50
2023-02-19T00:36:55.912Z,32.72
2023-02-19T00:39:23.584Z,27.95
2023-02-19T00:41:51.513Z,32.72
2023-02-19T00:44:19.205Z,31.98
2023-02-19T00:46:49.344Z,30.08
2023-02-19T00:49:23.412Z,28.80
2023-02-19T00:51:53.577Z,35.70
2023-02-19T00:54:22.734Z,30.45
2023-02-19T00:59:18.658Z,29.85
2023-02-19T01:01:46.657Z,34.30
2023-02-19T01:04:15.043Z,29.38
2023-02-19T01:06:43.286Z,26.58
2023-02-19T01:09:11.081Z,34.90
2023-02-19T01:11:39.140Z,38.08
2023-02-19T01:14:07.005Z,43.47
2023-02-19T01:16:35.315Z,35.55
2023-02-19T01:19:03.368Z,29.77
2023-02-19T01:21:31.907Z,29.13
2023-02-19T01:24:00.373Z,26.77
2023-02-19T01:26:33.387Z,30.73
2023-02-19T01:29:02.102Z,30.55
2023-02-19T01:31:30.990Z,31.17
2023-02-19T01:34:01.465Z,27.97
2023-02-19T01:36:32.340Z,29.38
2023-02-19T01:39:06.051Z,31.13
2023-02-19T01:41:40.441Z,30.30
2023-02-19T01:44:12.788Z,27.83
2023-02-19T01:46:46.473Z,34.75
2023-02-19T01:49:29.267Z,25.55
2023-02-19T01:52:22.006Z,31.42
2023-02-19T01:54:50.742Z,29.65
2023-02-19T01:57:25.499Z,29.98
2023-02-19T01:59:58.839Z,28.00
2023-02-19T02:02:28.560Z,25.13
2023-02-19T02:04:58.506Z,36.88
2023-02-19T02:07:45.108Z,26.80
2023-02-19T02:10:21.928Z,28.67
2023-02-19T02:12:57.014Z,24.80
2023-02-19T02:15:35.204Z,27.83
2023-02-19T02:18:34.536Z,24.48
2023-02-19T02:21:34.910Z,31.80
2023-02-19T02:24:39.642Z,25.10
2023-02-19T02:27:39.338Z,26.15
2023-02-19T02:30:36.827Z,25.77
2023-02-19T02:33:15.608Z,25.67
2023-02-19T02:36:20.121Z,34.20
2023-02-19T02:38:49.547Z,24.13
2023-02-19T02:41:22.584Z,25.20
2023-02-19T02:43:50.128Z,25.13
2023-02-19T02:46:36.684Z,23.08
2023-02-19T02:49:22.258Z,23.23
2023-02-19T02:51:54.637Z,20.58
2023-02-19T02:54:52.313Z,22.25
2023-02-19T02:57:22.580Z,21.50
2023-02-19T02:59:54.770Z,20.33
2023-02-19T03:02:30.243Z,21.48
2023-02-19T03:05:34.385Z,16.08
2023-02-19T03:08:10.643Z,18.23
2023-02-19T03:10:59.625Z,18.85
2023-02-19T03:13:55.601Z,16.92
2023-02-19T03:16:49.946Z,19.08
2023-02-19T03:19:23.398Z,19.00
2023-02-19T03:22:10.253Z,13.35
2023-02-19T03:25:13.397Z,17.45
2023-02-19T03:27:44.771Z,15.57
2023-02-19T03:30:24.290Z,20.55
2023-02-19T03:33:08.302Z,22.88
2023-02-19T03:35:53.050Z,21.55
2023-02-19T03:38:55.529Z,21.42
2023-02-19T03:41:47.362Z,17.08
2023-02-19T03:44:23.861Z,14.60
2023-02-19T03:47:35.293Z,16.20
2023-02-19T03:50:41.470Z,15.43
2023-02-19T03:53:35.422Z,15.15
2023-02-19T03:56:16.361Z,18.63
2023-02-19T03:59:09.903Z,17.08
2023-02-19T04:01:48.992Z,17.05
2023-02-19T04:04:32.861Z,13.48
2023-02-19T04:07:00.487Z,13.63
2023-02-19T04:09:43.369Z,18.63
2023-02-19T04:12:16.960Z,13.55
2023-02-19T04:15:05.217Z,13.10
2023-02-19T04:17:37.478Z,13.95
2023-02-19T04:20:10.490Z,25.08
2023-02-19T04:22:40.342Z,12.60
2023-02-19T04:25:09.095Z,13.93
2023-02-19T04:27:39.369Z,17.15
2023-02-19T04:30:11.557Z,17.77
2023-02-19T04:32:39.128Z,16.83
2023-02-19T04:35:07.292Z,17.98
2023-02-19T04:37:34.926Z,19.23
2023-02-19T04:40:03.180Z,14.75
2023-02-19T04:42:30.838Z,24.17
2023-02-19T04:44:58.782Z,17.00
2023-02-19T04:47:26.315Z,18.13
2023-02-19T04:49:54.192Z,17.38
2023-02-19T04:52:21.761Z,18.63
2023-02-19T04:54:49.742Z,25.05
2023-02-19T04:57:17.292Z,18.80
2023-02-19T04:59:46.562Z,19.17
2023-02-19T05:02:14.090Z,18.38
2023-02-19T05:04:42.345Z,22.48
2023-02-19T05:07:09.908Z,21.30
2023-02-19T05:09:37.850Z,21.92
2023-02-19T05:12:05.696Z,44.30
2023-02-19T05:14:33.610Z,47.08
2023-02-19T05:17:01.106Z,40.75
2023-02-19T05:19:29.017Z,29.50
2023-02-19T05:21:56.700Z,16.13
2023-02-19T05:24:24.550Z,17.90
2023-02-19T05:26:52.192Z,19.83
2023-02-19T05:29:20.084Z,11.27
2023-02-19T05:31:48.867Z,14.90
2023-02-19T05:34:16.819Z,12.20
2023-02-19T05:36:44.668Z,13.18
2023-02-19T05:39:12.835Z,13.98
2023-02-19T05:41:40.734Z,13.32
2023-02-19T05:44:11.276Z,10.40
2023-02-19T05:46:39.026Z,9.48
2023-02-19T05:49:06.862Z,12.35
2023-02-19T05:51:34.560Z,10.63
2023-02-19T05:54:02.487Z,13.98
2023-02-19T05:56:42.007Z,13.68
2023-02-19T05:59:24.137Z,14.00
2023-02-19T06:01:54.466Z,16.23
2023-02-19T06:04:22.399Z,17.33
2023-02-19T06:06:50.469Z,15.35
2023-02-19T06:09:18.544Z,15.32
2023-02-19T06:11:46.715Z,15.77
2023-02-19T06:14:15.046Z,14.70
2023-02-19T06:16:43.033Z,15.13
2023-02-19T06:19:11.222Z,19.58
2023-02-19T06:21:38.913Z,17.55
2023-02-19T06:24:09.158Z,16.55
2023-02-19T06:26:37.048Z,16.17
2023-02-19T06:29:05.083Z,16.77
2023-02-19T06:31:32.859Z,22.63
2023-02-19T06:34:05.172Z,22.40
2023-02-19T06:36:32.755Z,20.85
2023-02-19T06:39:02.430Z,22.65
2023-02-19T06:41:30.221Z,23.05
2023-02-19T06:43:58.881Z,19.40
2023-02-19T06:46:26.542Z,19.98
2023-02-19T06:48:54.587Z,15.90
2023-02-19T06:51:27.358Z,19.60
2023-02-19T06:53:55.759Z,19.95
2023-02-19T06:56:28.739Z,16.30
2023-02-19T06:59:00.640Z,13.00
2023-02-19T07:01:32.240Z,14.48
2023-02-19T07:04:00.285Z,14.30
2023-02-19T07:06:29.689Z,17.02
2023-02-19T07:08:58.923Z,17.13
2023-02-19T07:11:29.163Z,10.88
2023-02-19T07:13:59.418Z,16.83
2023-02-19T07:16:27.645Z,9.50
2023-02-19T07:19:00.390Z,13.68
2023-02-19T07:21:29.797Z,17.05
2023-02-19T07:26:25.749Z,14.15
2023-02-19T07:28:53.879Z,11.20
2023-02-19T07:31:24.182Z,11.88
2023-02-19T07:33:52.723Z,15.88
2023-02-19T07:36:22.067Z,12.63
2023-02-19T07:39:01.300Z,16.75
2023-02-19T07:41:29.099Z,15.23
2023-02-19T07:43:59.205Z,15.52
2023-02-19T07:46:27.289Z,12.85
2023-02-19T07:48:55.352Z,10.43
2023-02-19T07:51:23.451Z,12.13
2023-02-19T07:53:52.019Z,20.30
2023-02-19T07:56:20.977Z,8.73
2023-02-19T07:58:49.014Z,11.27
2023-02-19T08:01:40.958Z,10.68
2023-02-19T08:04:10.832Z,10.05
2023-02-19T08:09:06.577Z,8.00
2023-02-19T08:11:52.779Z,10.60
2023-02-19T08:14:24.310Z,12.95
2023-02-19T08:16:52.808Z,11.88
2023-02-19T08:19:21.811Z,20.67
2023-02-19T08:21:50.724Z,12.05
2023-02-19T08:24:18.692Z,16.80
2023-02-19T08:26:46.441Z,11.43
2023-02-19T08:29:14.404Z,10.20
2023-02-19T08:31:42.097Z,10.18
2023-02-19T08:34:11.125Z,8.75
2023-02-19T08:36:38.958Z,11.15
2023-02-19T08:39:06.985Z,10.38
2023-02-19T08:41:50.400Z,14.05
2023-02-19T08:44:40.190Z,12.10
2023-02-19T08:47:14.004Z,16.05
2023-02-19T08:49:42.320Z,11.93
2023-02-19T08:52:09.768Z,15.50
2023-02-19T08:54:37.795Z,10.13
2023-02-19T08:57:05.495Z,11.63
2023-02-19T08:59:33.415Z,16.73
2023-02-19T09:02:01.034Z,13.50
2023-02-19T09:04:29.036Z,18.48
2023-02-19T09:06:56.741Z,13.30
2023-02-19T09:09:24.633Z,12.70
2023-02-19T09:11:52.172Z,16.52
2023-02-19T09:14:20.062Z,15.65
2023-02-19T09:16:47.642Z,15.40
2023-02-19T09:19:15.528Z,18.33
2023-02-19T09:21:43.364Z,23.83
2023-02-19T09:24:12.262Z,19.25
2023-02-19T09:26:39.780Z,20.50
2023-02-19T09:29:08.011Z,18.30
2023-02-19T09:31:35.713Z,15.98
2023-02-19T09:34:03.709Z,17.05
2023-02-19T09:36:32.367Z,15.95
2023-02-19T09:39:02.077Z,18.38
2023-02-19T09:41:52.522Z,16.77
2023-02-19T09:44:35.692Z,14.85
2023-02-19T09:47:13.386Z,18.17
2023-02-19T09:49:50.256Z,18.55
2023-02-19T09:52:25.313Z,13.88
2023-02-19T09:54:59.425Z,11.95
2023-02-19T09:57:31.062Z,17.85
2023-02-19T10:00:21.908Z,19.25
2023-02-19T10:02:54.361Z,15.77
2023-02-19T10:05:24.095Z,13.73
2023-02-19T10:07:54.543Z,17.23
2023-02-19T10:10:34.645Z,14.07
2023-02-19T10:13:24.299Z,15.60
2023-02-19T10:15:57.247Z,12.18
2023-02-19T10:18:29.267Z,11.63
2023-02-19T10:20:58.632Z,16.75
2023-02-19T10:23:26.751Z,16.02
2023-02-19T10:26:00.017Z,12.50
2023-02-19T10:28:32.138Z,15.98
2023-02-19T10:31:03.530Z,13.00
2023-02-19T10:33:31.471Z,13.80
2023-02-19T10:36:05.866Z,15.43
2023-02-19T10:38:45.652Z,12.38
2023-02-19T10:41:17.623Z,11.55
2023-02-19T10:44:15.065Z,14.50
2023-02-19T10:46:50.963Z,16.17
2023-02-19T10:49:38.854Z,9.45
2023-02-19T10:52:31.697Z,13.33
2023-02-19T10:55:24.894Z,8.20
2023-02-19T10:57:53.175Z,10.18
2023-02-19T11:00:31.694Z,12.33
2023-02-19T11:03:19.699Z,10.18
2023-02-19T11:06:03.532Z,8.13
2023-02-19T11:08:53.640Z,7.50
2023-02-19T11:11:33.848Z,10.63
2023-02-19T11:14:17.038Z,8.05
2023-02-19T11:16:52.877Z,8.60
2023-02-19T11:19:44.838Z,5.93
2023-02-19T11:22:39.161Z,5.95
2023-02-19T11:25:12.811Z,10.20
2023-02-19T11:28:09.498Z,7.80
2023-02-19T11:30:44.124Z,5.75
2023-02-19T11:33:19.804Z,5.75
2023-02-19T11:35:50.649Z,4.47
2023-02-19T11:38:19.769Z,4.63
2023-02-19T11:43:58.034Z,6.95
2023-02-19T11:46:47.239Z,4.90
2023-02-19T11:49:49.629Z,6.85
2023-02-19T11:52:37.053Z,7.97
2023-02-19T11:55:30.520Z,9.65
2023-02-19T11:58:22.165Z,6.10
2023-02-19T12:01:22.455Z,9.93
2023-02-19T12:04:31.210Z,5.80
2023-02-19T12:07:36.965Z,8.63
2023-02-19T12:10:27.019Z,4.65
2023-02-19T12:13:08.776Z,4.95
2023-02-19T12:16:03.758Z,5.50
2023-02-19T12:19:33.358Z,8.60
2023-02-19T12:22:09.742Z,6.15
2023-02-19T12:24:58.981Z,5.82
2023-02-19T12:28:22.136Z,8.05
2023-02-19T12:31:18.014Z,6.18
2023-02-19T12:34:21.361Z,5.20
2023-02-19T12:37:22.850Z,7.85
2023-02-19T12:39:56.306Z,6.63
2023-02-19T12:42:50.982Z,5.30
2023-02-19T12:45:30.212Z,9.57
2023-02-19T12:48:30.193Z,5.32
2023-02-19T12:51:22.815Z,8.43
2023-02-19T12:54:02.579Z,6.80
2023-02-19T12:56:41.474Z,5.15
2023-02-19T12:59:37.946Z,6.72
2023-02-19T13:02:46.261Z,5.88
2023-02-19T13:05:41.864Z,8.25
2023-02-19T13:08:42.094Z,6.18
2023-02-19T13:11:31.457Z,6.68
2023-02-19T13:14:28.166Z,6.07
2023-02-19T13:17:04.144Z,8.05
2023-02-19T13:19:33.212Z,5.50
2023-02-19T13:22:41.165Z,6.50
2023-02-19T13:25:11.373Z,5.20
2023-02-19T13:27:59.374Z,5.72
2023-02-19T13:30:57.683Z,11.65
2023-02-19T13:34:07.176Z,6.07
2023-02-19T13:36:36.576Z,6.20
2023-02-19T13:39:07.735Z,13.43
2023-02-19T13:41:50.393Z,7.15
2023-02-19T13:44:21.937Z,5.20
2023-02-19T13:46:51.116Z,4.75
2023-02-19T13:49:31.677Z,8.55
2023-02-19T13:52:23.922Z,4.82
2023-02-19T13:54:51.519Z,7.63
2023-02-19T13:57:22.545Z,4.97
2023-02-19T13:59:55.475Z,5.97
2023-02-19T14:02:23.366Z,7.40
2023-02-19T14:05:07.946Z,10.23
2023-02-19T14:07:52.733Z,6.20
2023-02-19T14:10:58.298Z,7.97
2023-02-19T14:13:59.475Z,7.45
2023-02-19T14:16:39.796Z,5.93
2023-02-19T14:19:42.518Z,11.02
2023-02-19T14:22:47.803Z,11.88
2023-02-19T14:25:27.801Z,8.68
2023-02-19T14:28:45.735Z,7.38
2023-02-19T14:31:36.602Z,6.07
2023-02-19T14:34:27.021Z,6.28
2023-02-19T14:37:01.750Z,5.60
2023-02-19T14:39:37.981Z,8.45
2023-02-19T14:42:22.731Z,5.57
2023-02-19T14:44:57.731Z,4.85
2023-02-19T14:47:28.661Z,5.57
2023-02-19T14:50:08.311Z,6.45
2023-02-19T14:53:01.220Z,4.15
2023-02-19T14:55:36.365Z,4.07
2023-02-19T14:58:13.492Z,6.32
2023-02-19T15:00:42.934Z,4.13
2023-02-19T15:03:37.281Z,8.68
2023-02-19T15:06:18.620Z,6.07
2023-02-19T15:08:55.443Z,7.97
2023-02-19T15:11:26.138Z,3.13
2023-02-19T15:14:03.989Z,6.22
2023-02-19T15:16:35.818Z,6.50
2023-02-19T15:19:09.387Z,4.53
2023-02-19T15:21:47.957Z,8.38
2023-02-19T15:24:17.943Z,7.07
2023-02-19T15:26:54.291Z,5.80
2023-02-19T15:29:26.307Z,8.27
2023-02-19T15:31:55.999Z,7.40
2023-02-19T15:34:29.261Z,10.45
2023-02-19T15:37:12.893Z,4.15
2023-02-19T15:39:46.625Z,5.68
2023-02-19T15:42:25.688Z,4.53
2023-02-19T15:45:17.996Z,12.43
2023-02-19T15:48:01.172Z,8.98
2023-02-19T15:50:31.664Z,10.52
2023-02-19T15:53:14.640Z,9.07
2023-02-19T15:56:02.638Z,11.88
2023-02-19T15:58:32.959Z,10.73
2023-02-19T16:01:08.328Z,15.15
2023-02-19T16:03:36.657Z,12.43
2023-02-19T16:06:11.424Z,11.93
2023-02-19T16:08:44.501Z,12.30
2023-02-19T16:11:24.448Z,8.63
2023-02-19T16:13:52.672Z,10.90
2023-02-19T16:16:34.823Z,12.03
2023-02-19T16:19:02.656Z,15.15
2023-02-19T16:21:30.545Z,15.50
2023-02-19T16:24:12.191Z,14.02
2023-02-19T16:26:42.111Z,14.65
2023-02-19T16:29:30.220Z,17.83
2023-02-19T16:32:08.678Z,11.40
2023-02-19T16:34:57.434Z,9.75
2023-02-19T16:37:42.355Z,16.83
2023-02-19T16:40:09.707Z,8.18
2023-02-19T16:42:49.342Z,7.20
2023-02-19T16:45:17.797Z,5.45
2023-02-19T16:47:48.591Z,5.82
2023-02-19T16:50:20.768Z,8.75
2023-02-19T16:52:58.133Z,11.02
2023-02-19T16:55:27.656Z,10.90
2023-02-19T16:57:55.968Z,9.20
2023-02-19T17:00:28.393Z,7.70
2023-02-19T17:03:01.179Z,9.73
2023-02-19T17:05:32.368Z,9.88
2023-02-19T17:08:00.292Z,14.13
2023-02-19T17:10:28.701Z,8.02
2023-02-19T17:12:56.921Z,18.98
2023-02-19T17:15:24.394Z,11.45
2023-02-19T17:17:52.209Z,13.05
2023-02-19T17:20:31.748Z,10.25
2023-02-19T17:22:59.661Z,9.48
2023-02-19T17:25:27.938Z,11.38
2023-02-19T17:27:55.758Z,8.70
2023-02-19T17:30:33.254Z,10.48
2023-02-19T17:33:01.497Z,8.32
2023-02-19T17:35:28.924Z,12.48
2023-02-19T17:37:56.783Z,18.88
2023-02-19T17:40:33.985Z,14.18
2023-02-19T17:43:02.460Z,13.15
2023-02-19T17:45:30.020Z,12.88
2023-02-19T17:47:58.326Z,15.45
2023-02-19T17:50:30.454Z,13.60
2023-02-19T17:52:59.154Z,14.93
2023-02-19T17:55:27.100Z,15.67
2023-02-19T17:57:54.946Z,15.82
2023-02-19T18:00:26.529Z,19.45
2023-02-19T18:02:55.248Z,13.55
2023-02-19T18:05:24.203Z,16.23
2023-02-19T18:07:52.717Z,14.68
2023-02-19T18:10:23.507Z,17.75
2023-02-19T18:12:51.721Z,16.08
2023-02-19T18:15:25.438Z,15.13
2023-02-19T18:17:55.135Z,13.23
2023-02-19T18:22:56.170Z,16.65
2023-02-19T18:25:24.134Z,19.60
2023-02-19T18:27:52.214Z,17.30
2023-02-19T18:30:23.186Z,20.02
2023-02-19T18:32:52.578Z,17.48
2023-02-19T18:35:21.291Z,17.45
2023-02-19T18:37:53.642Z,17.00
2023-02-19T18:40:23.239Z,14.88
2023-02-19T18:42:51.130Z,15.13
2023-02-19T18:45:18.742Z,15.95
2023-02-19T18:47:49.270Z,17.02
2023-02-19T18:50:19.519Z,16.85
2023-02-19T18:52:49.834Z,16.95
2023-02-19T18:55:17.494Z,17.05
2023-02-19T18:57:46.252Z,14.32
2023-02-19T19:00:27.101Z,13.88
2023-02-19T19:02:59.656Z,18.05
2023-02-19T19:05:27.621Z,13.25
2023-02-19T19:07:59.354Z,12.70
2023-02-19T19:10:27.615Z,14.30
2023-02-19T19:12:55.658Z,12.77
2023-02-19T19:15:24.033Z,13.77
2023-02-19T19:17:52.980Z,13.73
2023-02-19T19:20:23.123Z,13.88
2023-02-19T19:22:53.031Z,13.77
2023-02-19T19:25:23.135Z,14.82
2023-02-19T19:27:55.150Z,15.65
2023-02-19T19:30:23.097Z,16.73
2023-02-19T19:32:52.647Z,16.20
2023-02-19T19:35:22.201Z,21.02
2023-02-19T19:37:50.170Z,22.58
2023-02-19T19:40:18.906Z,16.38
2023-02-19T19:42:47.402Z,17.25
2023-02-19T19:45:15.470Z,15.20
2023-02-19T19:47:43.373Z,19.60
2023-02-19T19:50:13.243Z,14.43
2023-02-19T19:52:41.233Z,18.48
2023-02-19T19:55:10.072Z,21.90
2023-02-19T19:57:40.628Z,17.13
2023-02-19T20:00:12.762Z,13.45
2023-02-19T20:02:40.939Z,19.60
2023-02-19T20:05:08.700Z,17.00
2023-02-19T20:07:36.682Z,13.52
2023-02-19T20:10:05.561Z,15.45
2023-02-19T20:12:33.557Z,21.23
2023-02-19T20:15:01.438Z,11.98
2023-02-19T20:17:29.855Z,14.45
2023-02-19T20:19:57.928Z,22.13
2023-02-19T20:22:25.980Z,12.65
2023-02-19T20:24:55.671Z,14.75
2023-02-19T20:27:24.504Z,13.15
2023-02-19T20:32:20.156Z,19.35
2023-02-19T20:34:48.446Z,18.65
2023-02-19T20:37:19.846Z,19.13
2023-02-19T20:39:50.953Z,16.35
2023-02-19T20:42:18.685Z,16.40
2023-02-19T20:44:46.658Z,18.73
2023-02-19T20:47:14.117Z,16.60
2023-02-19T20:49:48.851Z,13.38
2023-02-19T20:52:19.094Z,14.82
2023-02-19T20:54:47.470Z,14.02
2023-02-19T20:57:15.247Z,15.77
2023-02-19T20:59:44.313Z,14.70
2023-02-19T21:02:20.304Z,16.05
2023-02-19T21:04:48.758Z,16.00
2023-02-19T21:07:16.609Z,13.38
2023-02-19T21:09:44.387Z,14.35
2023-02-19T21:12:12.716Z,14.88
2023-02-19T21:14:41.391Z,14.63
2023-02-19T21:17:09.744Z,14.75
2023-02-19T21:19:37.641Z,15.48
2023-02-19T21:22:05.390Z,22.38
2023-02-19T21:24:33.286Z,17.42
2023-02-19T21:27:01.176Z,16.10
2023-02-19T21:29:29.285Z,27.25
2023-02-19T21:31:57.699Z,18.38
2023-02-19T21:34:29.215Z,15.25
2023-02-19T21:36:57.692Z,13.13
2023-02-19T21:39:27.621Z,5.93
2023-02-19T21:41:55.232Z,3.33
2023-02-19T21:44:23.054Z,3.42
2023-02-19T21:46:50.825Z,1.75
2023-02-19T21:49:18.856Z,3.42
2023-02-19T21:51:48.716Z,3.72
2023-02-19T21:54:24.793Z,2.50
2023-02-19T21:56:54.173Z,0.90
2023-02-19T21:59:25.598Z,0.30
2023-02-19T22:01:53.232Z,0.47
2023-02-19T22:04:22.112Z,1.30
2023-02-19T22:06:49.648Z,1.25
2023-02-19T22:09:17.606Z,0.32
2023-02-19T22:11:45.142Z,0.30
2023-02-19T22:14:12.921Z,0.28
2023-02-19T22:16:40.519Z,2.50
2023-02-19T22:19:09.715Z,0.52
2023-02-19T22:21:43.853Z,1.48
2023-02-19T22:24:21.566Z,0.57
2023-02-19T22:26:50.817Z,1.27
2023-02-19T22:29:20.072Z,1.27
2023-02-19T22:31:47.871Z,0.63
2023-02-19T22:34:16.172Z,1.50
2023-02-19T22:36:44.364Z,1.85
2023-02-19T22:39:26.012Z,0.85
2023-02-19T22:41:54.077Z,3.28
2023-02-19T22:44:21.958Z,0.60
2023-02-19T22:46:53.458Z,2.35
2023-02-19T22:49:22.938Z,3.55
2023-02-19T22:52:03.776Z,3.63
2023-02-19T22:54:31.676Z,2.08
2023-02-19T22:56:59.213Z,1.98
2023-02-19T22:59:27.097Z,9.73
2023-02-19T23:01:55.271Z,2.75
2023-02-19T23:04:25.555Z,2.45
2023-02-19T23:06:53.225Z,3.50
2023-02-19T23:09:27.742Z,4.75
2023-02-19T23:12:06.100Z,4.55
2023-02-19T23:14:34.222Z,7.95
2023-02-19T23:17:01.894Z,6.63
2023-02-19T23:19:30.128Z,7.75
2023-02-19T23:21:57.860Z,4.93
2023-02-19T23:24:25.920Z,5.30
2023-02-19T23:26:54.254Z,3.83
2023-02-19T23:29:28.121Z,4.78
2023-02-19T23:31:55.902Z,4.78
2023-02-19T23:34:24.532Z,4.63
2023-02-19T23:36:52.639Z,2.92
2023-02-19T23:39:22.218Z,3.53
2023-02-19T23:41:52.970Z,2.33
2023-02-19T23:44:22.952Z,3.03
2023-02-19T23:46:52.351Z,3.35
2023-02-19T23:49:20.592Z,3.53
2023-02-19T23:51:48.404Z,5.22
2023-02-19T23:54:16.491Z,4.82
2023-02-19T23:56:44.299Z,6.15
2023-02-19T23:59:12.807Z,6.97
